createdAt,value
2018-12-22T00:02:19.555Z,136.27
2018-12-22T00:04:49.896Z,143.77
2018-12-22T00:07:20.244Z,155.63
2018-12-22T00:09:50.462Z,149.37
2018-12-22T00:12:20.431Z,143.93
2018-12-22T00:14:50.757Z,152.93
2018-12-22T00:17:20.965Z,151.77
2018-12-22T00:19:51.260Z,158.13
2018-12-22T00:22:21.470Z,150.20
2018-12-22T00:24:51.563Z,163.70
2018-12-22T00:27:21.853Z,159.23
2018-12-22T00:29:52.221Z,173.33
2018-12-22T00:32:22.556Z,164.63
2018-12-22T00:34:52.768Z,167.93
2018-12-22T00:37:23.019Z,169.53
2018-12-22T00:39:53.168Z,172.13
2018-12-22T00:42:23.387Z,165.33
2018-12-22T00:44:53.692Z,155.27
2018-12-22T00:47:23.984Z,166.37
2018-12-22T00:49:54.563Z,156.67
2018-12-22T00:52:24.562Z,160.00
2018-12-22T00:54:54.837Z,154.97
2018-12-22T00:57:25.123Z,146.77
2018-12-22T00:59:54.967Z,134.00
2018-12-22T01:02:25.316Z,148.57
2018-12-22T01:04:55.313Z,136.77
2018-12-22T01:07:25.622Z,146.97
2018-12-22T01:09:55.715Z,133.57
2018-12-22T01:12:25.681Z,132.13
2018-12-22T01:14:55.944Z,134.03
2018-12-22T01:17:25.969Z,134.13
2018-12-22T01:19:55.932Z,147.00
2018-12-22T01:22:26.060Z,147.13
2018-12-22T01:24:56.633Z,142.00
2018-12-22T01:27:26.480Z,148.73
2018-12-22T01:29:56.870Z,146.87
2018-12-22T01:32:26.913Z,143.57
2018-12-22T01:34:57.156Z,143.13
2018-12-22T01:37:27.377Z,128.97
2018-12-22T01:39:57.867Z,139.40
2018-12-22T01:42:29.207Z,125.23
2018-12-22T01:44:59.630Z,129.00
2018-12-22T01:47:30.527Z,141.67
2018-12-22T01:50:00.532Z,136.47
2018-12-22T01:52:30.972Z,144.53
2018-12-22T01:55:01.031Z,124.13
2018-12-22T01:57:31.264Z,138.77
2018-12-22T02:00:01.382Z,130.70
2018-12-22T02:02:32.064Z,143.60
2018-12-22T02:05:02.792Z,139.07
2018-12-22T02:07:33.201Z,148.90
2018-12-22T02:10:03.580Z,141.40
2018-12-22T02:12:34.008Z,125.70
2018-12-22T02:15:04.749Z,137.83
2018-12-22T02:17:35.041Z,144.33
2018-12-22T02:20:05.981Z,135.30
2018-12-22T02:22:36.969Z,133.63
2018-12-22T02:25:07.975Z,131.77
2018-12-22T02:27:38.031Z,131.90
2018-12-22T02:30:08.366Z,141.40
2018-12-22T02:32:38.660Z,132.17
2018-12-22T02:35:08.776Z,124.03
2018-12-22T02:37:39.257Z,129.57
2018-12-22T02:40:09.624Z,136.60
2018-12-22T02:42:39.625Z,129.27
2018-12-22T02:45:10.109Z,138.87
2018-12-22T02:47:40.299Z,116.57
2018-12-22T02:50:11.492Z,103.37
2018-12-22T02:52:41.533Z,109.77
2018-12-22T02:55:12.318Z,100.93
2018-12-22T02:57:42.358Z,97.87
2018-12-22T03:01:15.870Z,99.47
2018-12-22T03:03:46.378Z,107.23
2018-12-22T03:06:16.802Z,96.43
2018-12-22T03:08:46.966Z,108.90
2018-12-22T03:11:17.084Z,97.80
2018-12-22T03:13:47.507Z,94.73
2018-12-22T03:16:17.448Z,93.43
2018-12-22T03:18:47.711Z,111.60
2018-12-22T03:21:17.789Z,99.57
2018-12-22T03:23:48.405Z,101.97
2018-12-22T03:26:18.752Z,102.13
2018-12-22T03:28:48.883Z,106.27
2018-12-22T03:31:19.170Z,108.40
2018-12-22T03:33:48.999Z,106.67
2018-12-22T03:36:18.980Z,98.73
2018-12-22T03:38:49.061Z,95.53
2018-12-22T03:41:19.224Z,113.97
2018-12-22T03:43:49.393Z,103.67
2018-12-22T03:46:19.597Z,105.07
2018-12-22T03:48:50.195Z,109.47
2018-12-22T03:51:20.326Z,103.50
2018-12-22T03:53:51.088Z,106.20
2018-12-22T03:56:21.698Z,103.30
2018-12-22T03:58:51.778Z,110.63
2018-12-22T04:01:21.956Z,102.67
2018-12-22T04:03:52.298Z,89.60
2018-12-22T04:06:22.567Z,108.77
2018-12-22T04:08:52.825Z,95.57
2018-12-22T04:11:22.808Z,95.30
2018-12-22T04:13:52.991Z,93.67
2018-12-22T04:16:23.424Z,91.77
2018-12-22T04:18:53.364Z,84.23
2018-12-22T04:21:23.650Z,83.90
2018-12-22T04:23:54.061Z,93.80
2018-12-22T04:26:24.437Z,99.00
2018-12-22T04:28:54.623Z,87.47
2018-12-22T04:31:24.822Z,92.03
2018-12-22T04:33:55.499Z,94.23
2018-12-22T04:36:26.405Z,85.00
2018-12-22T04:38:56.496Z,88.93
2018-12-22T04:41:26.583Z,89.93
2018-12-22T04:43:57.934Z,98.70
2018-12-22T04:46:27.910Z,94.47
2018-12-22T04:48:58.260Z,88.87
2018-12-22T04:51:28.339Z,87.43
2018-12-22T04:54:03.825Z,85.70
2018-12-22T04:56:33.937Z,89.97
2018-12-22T04:59:04.035Z,91.43
2018-12-22T05:01:34.345Z,85.03
2018-12-22T05:04:04.906Z,84.83
2018-12-22T05:06:34.999Z,96.60
2018-12-22T05:09:07.281Z,83.80
2018-12-22T05:11:37.568Z,94.67
2018-12-22T05:14:13.423Z,84.97
2018-12-22T05:16:43.807Z,82.93
2018-12-22T05:19:15.077Z,91.70
2018-12-22T05:21:45.173Z,89.00
2018-12-22T05:24:16.129Z,73.30
2018-12-22T05:26:46.521Z,75.83
2018-12-22T05:29:16.876Z,77.97
2018-12-22T05:31:47.078Z,79.63
2018-12-22T05:34:17.625Z,72.90
2018-12-22T05:36:47.680Z,71.07
2018-12-22T05:39:17.913Z,71.23
2018-12-22T05:41:48.087Z,78.80
2018-12-22T05:44:18.121Z,79.83
2018-12-22T05:46:48.484Z,76.97
2018-12-22T05:49:18.551Z,74.00
2018-12-22T05:51:49.682Z,70.00
2018-12-22T05:54:19.930Z,72.40
2018-12-22T05:56:50.142Z,68.27
2018-12-22T05:59:34.963Z,71.13
2018-12-22T06:02:05.672Z,69.07
2018-12-22T06:04:35.632Z,67.53
2018-12-22T06:07:06.141Z,72.67
2018-12-22T06:09:36.679Z,67.03
2018-12-22T06:12:07.223Z,66.13
2018-12-22T06:14:37.498Z,66.50
2018-12-22T06:17:08.217Z,66.10
2018-12-22T06:19:38.347Z,67.00
2018-12-22T06:22:08.695Z,67.00
2018-12-22T06:24:41.219Z,74.20
2018-12-22T06:27:11.178Z,71.40
2018-12-22T06:29:41.800Z,64.27
2018-12-22T06:32:14.258Z,66.27
2018-12-22T06:34:44.894Z,62.37
2018-12-22T06:37:15.450Z,62.90
2018-12-22T06:39:46.688Z,63.20
2018-12-22T06:42:16.908Z,58.27
2018-12-22T06:44:46.899Z,58.53
2018-12-22T06:50:01.909Z,65.47
2018-12-22T06:52:32.093Z,68.23
2018-12-22T06:55:07.711Z,70.40
2018-12-22T06:57:38.017Z,72.13
2018-12-22T07:00:17.399Z,95.13
2018-12-22T07:02:42.030Z,87.53
2018-12-22T07:05:12.836Z,100.20
2018-12-22T07:07:43.070Z,107.03
2018-12-22T07:10:13.388Z,95.37
2018-12-22T07:12:43.602Z,103.27
2018-12-22T07:15:14.702Z,90.47
2018-12-22T07:17:45.021Z,96.43
2018-12-22T07:20:15.192Z,85.73
2018-12-22T07:22:45.233Z,88.83
2018-12-22T07:25:15.826Z,87.33
2018-12-22T07:27:46.114Z,86.33
2018-12-22T07:30:16.123Z,86.47
2018-12-22T07:32:46.154Z,90.90
2018-12-22T07:35:16.705Z,104.50
2018-12-22T07:37:46.966Z,109.73
2018-12-22T07:40:16.863Z,120.20
2018-12-22T07:42:47.614Z,282.70
2018-12-22T07:45:17.745Z,167.20
2018-12-22T07:47:48.459Z,117.70
2018-12-22T07:50:18.805Z,151.17
2018-12-22T07:52:51.733Z,117.80
2018-12-22T07:55:22.317Z,136.47
2018-12-22T07:57:52.477Z,118.57
2018-12-22T08:00:23.030Z,130.43
2018-12-22T08:02:53.371Z,219.13
2018-12-22T08:05:28.829Z,125.27
2018-12-22T08:07:59.573Z,114.80
2018-12-22T08:10:29.434Z,118.33
2018-12-22T08:12:59.547Z,107.53
2018-12-22T08:15:29.674Z,110.00
2018-12-22T08:18:00.436Z,106.07
2018-12-22T08:20:30.371Z,68.13
2018-12-22T08:23:00.381Z,44.20
2018-12-22T08:25:30.471Z,41.63
2018-12-22T08:28:00.430Z,44.13
2018-12-22T08:30:30.349Z,42.47
2018-12-22T08:33:00.540Z,35.93
2018-12-22T08:35:30.514Z,32.40
2018-12-22T08:38:00.536Z,32.37
2018-12-22T08:40:30.682Z,27.47
2018-12-22T08:43:00.798Z,27.97
2018-12-22T08:45:30.970Z,28.90
2018-12-22T08:48:01.045Z,28.90
2018-12-22T08:50:31.016Z,31.90
2018-12-22T08:53:01.347Z,26.53
2018-12-22T08:55:31.597Z,23.67
2018-12-22T08:58:02.085Z,24.80
2018-12-22T09:00:32.051Z,25.47
2018-12-22T09:03:02.398Z,20.90
2018-12-22T09:05:32.505Z,25.53
2018-12-22T09:08:02.901Z,24.20
2018-12-22T09:10:33.026Z,20.90
2018-12-22T09:13:03.154Z,23.10
2018-12-22T09:15:33.487Z,23.70
2018-12-22T09:18:03.987Z,22.13
2018-12-22T09:23:33.817Z,26.60
2018-12-22T09:26:04.278Z,27.33
2018-12-22T09:28:34.835Z,21.37
2018-12-22T09:31:05.485Z,19.73
2018-12-22T09:33:35.745Z,20.57
2018-12-22T09:36:06.468Z,21.10
2018-12-22T09:38:37.564Z,22.57
2018-12-22T09:41:08.032Z,23.10
2018-12-22T09:43:38.461Z,20.33
2018-12-22T09:46:08.472Z,18.40
2018-12-22T09:48:38.621Z,20.00
2018-12-22T09:51:08.611Z,19.50
2018-12-22T09:53:38.668Z,18.90
2018-12-22T09:56:08.749Z,18.50
2018-12-22T09:58:38.875Z,19.40
2018-12-22T10:01:09.428Z,19.77
2018-12-22T10:03:40.098Z,18.10
2018-12-22T10:06:10.775Z,18.27
2018-12-22T10:08:41.154Z,20.57
2018-12-22T10:11:11.048Z,19.47
2018-12-22T10:13:41.625Z,20.80
2018-12-22T10:16:13.186Z,18.57
2018-12-22T10:18:43.407Z,19.00
2018-12-22T10:21:13.727Z,19.30
2018-12-22T10:23:43.995Z,17.77
2018-12-22T10:26:14.361Z,17.00
2018-12-22T10:28:44.501Z,18.00
2018-12-22T10:31:18.173Z,18.30
2018-12-22T10:33:47.818Z,18.57
2018-12-22T10:36:17.952Z,19.93
2018-12-22T10:38:49.284Z,17.17
2018-12-22T10:41:19.405Z,17.50
2018-12-22T10:43:50.118Z,19.47
2018-12-22T10:46:20.686Z,19.27
2018-12-22T10:48:51.364Z,23.60
2018-12-22T10:51:24.397Z,19.93
2018-12-22T10:53:53.943Z,18.47
2018-12-22T10:56:24.190Z,18.27
2018-12-22T10:58:54.148Z,23.37
2018-12-22T11:01:26.604Z,22.30
2018-12-22T11:03:57.061Z,21.07
2018-12-22T11:06:27.302Z,22.40
2018-12-22T11:08:57.165Z,24.43
2018-12-22T11:11:27.485Z,24.93
2018-12-22T11:13:57.832Z,23.80
2018-12-22T11:16:27.979Z,25.50
2018-12-22T11:18:58.851Z,24.37
2018-12-22T11:21:29.095Z,28.13
2018-12-22T11:23:59.797Z,26.23
2018-12-22T11:26:30.830Z,32.93
2018-12-22T11:29:01.273Z,30.13
2018-12-22T11:31:35.076Z,30.83
2018-12-22T11:34:05.676Z,30.73
2018-12-22T11:36:36.632Z,35.33
2018-12-22T11:39:08.291Z,33.13
2018-12-22T11:41:38.344Z,32.03
2018-12-22T11:44:14.460Z,33.50
2018-12-22T11:46:44.678Z,28.33
2018-12-22T11:49:27.337Z,31.87
2018-12-22T11:51:57.761Z,25.90
2018-12-22T11:54:28.257Z,27.73
2018-12-22T11:56:58.412Z,33.07
2018-12-22T11:59:28.636Z,30.97
2018-12-22T12:01:59.124Z,35.40
2018-12-22T12:04:29.616Z,31.70
2018-12-22T12:06:59.798Z,37.03
2018-12-22T12:09:30.051Z,37.73
2018-12-22T12:12:00.251Z,30.73
2018-12-22T12:14:32.651Z,31.47
2018-12-22T12:23:52.814Z,37.13
2018-12-22T12:26:23.907Z,32.43
2018-12-22T12:28:54.378Z,31.07
2018-12-22T12:31:24.882Z,28.87
2018-12-22T12:33:56.187Z,28.10
2018-12-22T12:36:26.450Z,27.23
2018-12-22T12:38:56.596Z,30.97
2018-12-22T12:41:26.830Z,25.40
2018-12-22T12:44:02.576Z,31.70
2018-12-22T12:46:38.625Z,35.43
2018-12-22T12:49:08.772Z,31.43
2018-12-22T12:51:39.270Z,21.67
2018-12-22T12:54:10.496Z,24.53
2018-12-22T12:56:46.281Z,26.47
2018-12-22T12:59:16.487Z,22.87
2018-12-22T13:01:46.897Z,22.90
2018-12-22T13:04:17.681Z,32.67
2018-12-22T13:06:48.632Z,24.03
2018-12-22T13:09:18.912Z,30.80
2018-12-22T13:11:50.676Z,19.10
2018-12-22T13:14:23.370Z,21.53
2018-12-22T13:16:54.891Z,17.77
2018-12-22T13:19:25.130Z,20.60
2018-12-22T13:21:55.858Z,20.63
2018-12-22T13:24:26.421Z,17.17
2018-12-22T13:26:56.499Z,18.53
2018-12-22T13:29:26.561Z,17.30
2018-12-22T13:31:56.733Z,21.40
2018-12-22T13:34:26.858Z,21.90
2018-12-22T13:36:57.185Z,22.50
2018-12-22T13:39:29.047Z,22.00
2018-12-22T13:41:59.352Z,23.37
2018-12-22T13:44:31.338Z,20.53
2018-12-22T13:47:01.459Z,23.70
2018-12-22T13:49:32.409Z,17.80
2018-12-22T13:52:03.152Z,20.37
2018-12-22T13:54:40.000Z,20.27
2018-12-22T13:57:10.105Z,23.30
2018-12-22T13:59:40.399Z,22.40
2018-12-22T14:02:18.011Z,26.60
2018-12-22T14:04:42.611Z,29.33
2018-12-22T14:07:13.844Z,28.00
2018-12-22T14:09:44.071Z,28.57
2018-12-22T14:12:15.805Z,25.97
2018-12-22T14:14:46.583Z,28.73
2018-12-22T14:17:21.619Z,27.23
2018-12-22T14:20:02.492Z,25.20
2018-12-22T14:22:34.476Z,28.50
2018-12-22T14:25:08.856Z,28.63
2018-12-22T14:27:38.809Z,26.50
2018-12-22T14:30:11.654Z,23.20
2018-12-22T14:32:42.015Z,23.77
2018-12-22T14:35:53.790Z,26.60
2018-12-22T14:38:24.041Z,29.80
2018-12-22T14:40:54.104Z,25.73
2018-12-22T14:43:24.448Z,26.73
2018-12-22T14:45:54.950Z,27.97
2018-12-22T14:48:25.527Z,25.53
2018-12-22T14:50:55.942Z,24.27
2018-12-22T14:53:26.331Z,27.10
2018-12-22T14:55:57.329Z,25.93
2018-12-22T14:58:28.956Z,28.17
2018-12-22T15:00:59.173Z,29.47
2018-12-22T15:03:29.878Z,30.10
2018-12-22T15:06:00.099Z,31.03
2018-12-22T15:08:30.608Z,32.70
2018-12-22T15:11:01.028Z,30.93
2018-12-22T15:13:32.144Z,30.93
2018-12-22T15:16:02.398Z,32.20
2018-12-22T15:18:32.716Z,31.57
2018-12-22T15:21:02.838Z,33.67
2018-12-22T15:23:32.840Z,34.43
2018-12-22T15:26:03.213Z,34.53
2018-12-22T15:28:33.793Z,34.00
2018-12-22T15:31:04.821Z,32.33
2018-12-22T15:33:34.847Z,31.47
2018-12-22T15:36:05.935Z,35.90
2018-12-22T15:38:36.068Z,38.63
2018-12-22T15:41:07.417Z,31.77
2018-12-22T15:43:38.805Z,33.00
2018-12-22T15:46:08.967Z,32.93
2018-12-22T15:48:39.291Z,33.37
2018-12-22T15:51:09.412Z,32.73
2018-12-22T15:53:40.234Z,34.13
2018-12-22T15:56:10.420Z,35.27
2018-12-22T15:58:41.096Z,31.63
2018-12-22T16:01:11.483Z,34.57
2018-12-22T16:03:41.704Z,39.60
2018-12-22T16:06:13.606Z,33.77
2018-12-22T16:08:43.780Z,40.20
2018-12-22T16:11:14.119Z,44.77
2018-12-22T16:13:44.400Z,41.73
2018-12-22T16:16:15.465Z,38.03
2018-12-22T16:18:45.629Z,38.63
2018-12-22T16:21:16.505Z,36.47
2018-12-22T16:23:52.489Z,33.87
2018-12-22T16:26:24.020Z,33.70
2018-12-22T16:29:00.782Z,37.13
2018-12-22T16:31:30.958Z,33.30
2018-12-22T16:34:01.117Z,30.97
2018-12-22T16:36:31.788Z,39.00
2018-12-22T16:39:01.880Z,35.20
2018-12-22T16:41:33.072Z,37.40
2018-12-22T16:44:10.798Z,33.57
2018-12-22T16:46:41.063Z,38.70
2018-12-22T16:49:11.391Z,30.70
2018-12-22T16:51:41.987Z,36.83
2018-12-22T16:54:13.313Z,38.23
2018-12-22T16:56:43.513Z,35.03
2018-12-22T16:59:14.039Z,36.43
2018-12-22T17:01:56.289Z,35.43
2018-12-22T17:04:26.719Z,40.37
2018-12-22T17:06:56.886Z,39.30
2018-12-22T17:09:26.964Z,38.60
2018-12-22T17:11:57.292Z,40.27
2018-12-22T17:14:27.708Z,42.93
2018-12-22T17:16:57.720Z,45.43
2018-12-22T17:19:27.998Z,47.23
2018-12-22T17:22:10.108Z,41.97
2018-12-22T17:24:51.767Z,44.67
2018-12-22T17:27:21.976Z,51.33
2018-12-22T17:29:52.050Z,56.83
2018-12-22T17:32:22.544Z,53.17
2018-12-22T17:34:52.637Z,51.63
2018-12-22T17:37:22.845Z,51.13
2018-12-22T17:39:55.889Z,58.53
2018-12-22T17:42:26.915Z,52.30
2018-12-22T17:44:57.035Z,54.77
2018-12-22T17:47:27.303Z,55.03
2018-12-22T17:49:57.863Z,60.73
2018-12-22T17:52:28.098Z,56.07
2018-12-22T17:54:58.328Z,57.13
2018-12-22T17:57:28.957Z,59.23
2018-12-22T18:00:13.514Z,62.33
2018-12-22T18:02:45.473Z,64.97
2018-12-22T18:05:16.014Z,61.73
2018-12-22T18:07:47.411Z,61.97
2018-12-22T18:10:17.536Z,58.63
2018-12-22T18:12:47.856Z,59.33
2018-12-22T18:15:20.950Z,57.93
2018-12-22T18:17:51.295Z,58.03
2018-12-22T18:20:21.869Z,53.50
2018-12-22T18:22:52.160Z,57.77
2018-12-22T18:25:22.632Z,53.87
2018-12-22T18:27:53.596Z,54.90
2018-12-22T18:30:23.809Z,58.40
2018-12-22T18:32:54.039Z,57.13
2018-12-22T18:35:24.377Z,55.40
2018-12-22T18:37:54.995Z,56.27
2018-12-22T18:40:25.239Z,61.20
2018-12-22T18:42:55.520Z,52.80
2018-12-22T18:45:25.805Z,51.67
2018-12-22T18:47:56.111Z,39.77
2018-12-22T18:50:27.478Z,42.90
2018-12-22T18:52:57.539Z,41.20
2018-12-22T18:55:27.805Z,41.13
2018-12-22T18:57:59.883Z,36.23
2018-12-22T19:00:30.410Z,37.93
2018-12-22T19:03:00.606Z,37.00
2018-12-22T19:05:30.779Z,29.97
2018-12-22T19:08:06.243Z,26.83
2018-12-22T19:10:39.893Z,26.70
2018-12-22T19:13:10.211Z,29.83
2018-12-22T19:15:41.114Z,27.07
2018-12-22T19:18:12.043Z,27.03
2018-12-22T19:20:48.289Z,30.03
2018-12-22T19:23:25.727Z,31.07
2018-12-22T19:25:55.808Z,29.83
2018-12-22T19:28:25.992Z,28.17
2018-12-22T19:30:56.198Z,30.73
2018-12-22T19:33:26.624Z,46.53
2018-12-22T19:35:57.242Z,47.97
2018-12-22T19:38:27.709Z,52.17
2018-12-22T19:40:58.300Z,41.60
2018-12-22T19:43:28.586Z,79.53
2018-12-22T19:45:58.698Z,64.33
2018-12-22T19:48:29.062Z,37.30
2018-12-22T19:50:59.550Z,83.50
2018-12-22T19:53:29.743Z,81.33
2018-12-22T19:55:59.865Z,83.77
2018-12-22T19:58:30.057Z,51.80
2018-12-22T20:01:00.288Z,118.03
2018-12-22T20:03:30.895Z,46.97
2018-12-22T20:06:01.637Z,59.97
2018-12-22T20:08:31.951Z,42.67
2018-12-22T20:11:02.224Z,23.27
2018-12-22T20:13:38.322Z,22.87
2018-12-22T20:16:09.316Z,19.63
2018-12-22T20:18:39.893Z,23.87
2018-12-22T20:21:10.300Z,25.43
2018-12-22T20:23:40.663Z,22.93
2018-12-22T20:26:11.836Z,18.53
2018-12-22T20:28:42.470Z,18.43
2018-12-22T20:31:13.158Z,18.90
2018-12-22T20:33:44.066Z,18.37
2018-12-22T20:36:14.811Z,20.87
2018-12-22T20:38:45.397Z,20.50
2018-12-22T20:41:16.148Z,23.33
2018-12-22T20:43:46.741Z,20.57
2018-12-22T20:46:17.079Z,17.83
2018-12-22T20:48:47.297Z,19.43
2018-12-22T20:51:17.487Z,12.73
2018-12-22T20:53:47.849Z,18.33
2018-12-22T20:56:18.081Z,17.33
2018-12-22T20:58:48.331Z,15.77
2018-12-22T21:01:18.766Z,13.20
2018-12-22T21:03:49.112Z,13.87
2018-12-22T21:06:24.184Z,11.63
2018-12-22T21:08:54.430Z,14.57
2018-12-22T21:11:24.711Z,12.30
2018-12-22T21:13:55.324Z,12.63
2018-12-22T21:16:26.300Z,11.57
2018-12-22T21:18:57.835Z,11.73
2018-12-22T21:21:27.830Z,12.00
2018-12-22T21:23:58.237Z,11.87
2018-12-22T21:26:28.879Z,12.47
2018-12-22T21:28:59.095Z,13.47
2018-12-22T21:31:29.323Z,14.37
2018-12-22T21:33:59.641Z,10.27
2018-12-22T21:36:29.901Z,15.03
2018-12-22T21:39:00.190Z,12.87
2018-12-22T21:41:31.545Z,14.77
2018-12-22T21:44:02.037Z,13.30
2018-12-22T21:46:32.423Z,13.73
2018-12-22T21:49:03.730Z,14.10
2018-12-22T21:51:34.225Z,14.17
2018-12-22T21:54:05.411Z,13.43
2018-12-22T21:56:35.747Z,13.20
2018-12-22T21:59:06.995Z,18.20
2018-12-22T22:01:37.208Z,16.33
2018-12-22T22:04:08.258Z,14.33
2018-12-22T22:06:38.980Z,14.20
2018-12-22T22:09:09.358Z,15.83
2018-12-22T22:11:39.375Z,14.77
2018-12-22T22:14:09.798Z,14.70
2018-12-22T22:16:40.037Z,12.97
2018-12-22T22:19:10.451Z,11.83
2018-12-22T22:21:40.806Z,16.00
2018-12-22T22:24:10.906Z,13.87
2018-12-22T22:26:41.325Z,15.53
2018-12-22T22:29:12.231Z,15.10
2018-12-22T22:31:42.465Z,20.80
2018-12-22T22:34:13.325Z,16.77
2018-12-22T22:36:43.772Z,13.37
2018-12-22T22:39:14.335Z,16.13
2018-12-22T22:41:45.542Z,15.57
2018-12-22T22:44:17.100Z,11.40
2018-12-22T22:46:47.150Z,17.37
2018-12-22T22:49:18.100Z,15.37
2018-12-22T22:51:48.408Z,13.30
2018-12-22T22:54:18.429Z,14.00
2018-12-22T22:56:48.927Z,16.13
2018-12-22T22:59:19.225Z,14.23
2018-12-22T23:01:49.637Z,15.17
2018-12-22T23:04:22.419Z,14.83
2018-12-22T23:06:53.181Z,16.13
2018-12-22T23:09:24.731Z,16.40
2018-12-22T23:11:54.867Z,14.67
2018-12-22T23:14:28.323Z,24.43
2018-12-22T23:16:59.827Z,20.50
2018-12-22T23:19:29.911Z,22.70
2018-12-22T23:22:00.234Z,22.73
2018-12-22T23:24:30.567Z,21.27
2018-12-22T23:27:02.671Z,24.20
2018-12-22T23:29:34.797Z,21.23
2018-12-22T23:32:05.202Z,18.73
2018-12-22T23:34:35.750Z,21.43
2018-12-22T23:37:07.366Z,19.73
2018-12-22T23:39:37.362Z,21.93
2018-12-22T23:42:07.745Z,23.10
2018-12-22T23:44:37.760Z,22.73
2018-12-22T23:47:09.631Z,22.37
2018-12-22T23:49:42.036Z,25.17
2018-12-22T23:52:12.625Z,26.70
2018-12-22T23:54:43.329Z,29.20
2018-12-22T23:57:13.539Z,21.70
2018-12-22T23:59:43.643Z,21.07
